sensor_id;sensor_type;location;lat;lon;timestamp;pressure;altitude;pressure_sealevel;temperature;humidity
48848;BME280;36611;51.638;5.784;2022-11-24T00:01:08;100208.44;;;11.71;62.49
48848;BME280;36611;51.638;5.784;2022-11-24T00:03:36;100197.69;;;11.71;62.23
48848;BME280;36611;51.638;5.784;2022-11-24T00:06:08;100200.38;;;11.71;62.18
48848;BME280;36611;51.638;5.784;2022-11-24T00:08:37;100202.22;;;11.71;62.42
48848;BME280;36611;51.638;5.784;2022-11-24T00:11:06;100203.19;;;11.70;62.14
48848;BME280;36611;51.638;5.784;2022-11-24T00:13:34;100200.63;;;11.68;62.46
48848;BME280;36611;51.638;5.784;2022-11-24T00:18:38;100212.50;;;11.66;62.10
48848;BME280;36611;51.638;5.784;2022-11-24T00:21:06;100216.31;;;11.63;62.44
48848;BME280;36611;51.638;5.784;2022-11-24T00:23:33;100217.44;;;11.61;62.16
48848;BME280;36611;51.638;5.784;2022-11-24T00:26:08;100216.44;;;11.62;62.39
48848;BME280;36611;51.638;5.784;2022-11-24T00:28:36;100220.00;;;11.62;62.43
48848;BME280;36611;51.638;5.784;2022-11-24T00:31:05;100222.69;;;11.62;62.13
48848;BME280;36611;51.638;5.784;2022-11-24T00:33:43;100225.25;;;11.64;62.14
48848;BME280;36611;51.638;5.784;2022-11-24T00:36:10;100226.94;;;11.65;62.25
48848;BME280;36611;51.638;5.784;2022-11-24T00:38:37;100231.59;;;11.63;62.23
48848;BME280;36611;51.638;5.784;2022-11-24T00:41:04;100234.41;;;11.61;62.08
48848;BME280;36611;51.638;5.784;2022-11-24T00:43:31;100224.06;;;11.57;61.92
48848;BME280;36611;51.638;5.784;2022-11-24T00:45:58;100227.59;;;11.57;61.96
48848;BME280;36611;51.638;5.784;2022-11-24T00:48:24;100239.34;;;11.56;62.04
48848;BME280;36611;51.638;5.784;2022-11-24T00:51:03;100243.00;;;11.55;61.90
48848;BME280;36611;51.638;5.784;2022-11-24T00:53:30;100235.94;;;11.54;61.94
48848;BME280;36611;51.638;5.784;2022-11-24T00:55:57;100228.13;;;11.51;61.92
48848;BME280;36611;51.638;5.784;2022-11-24T00:58:24;100232.66;;;11.51;61.95
48848;BME280;36611;51.638;5.784;2022-11-24T01:00:51;100232.78;;;11.49;61.92
48848;BME280;36611;51.638;5.784;2022-11-24T01:03:19;100233.75;;;11.48;62.13
48848;BME280;36611;51.638;5.784;2022-11-24T01:05:46;100235.72;;;11.46;61.93
48848;BME280;36611;51.638;5.784;2022-11-24T01:08:13;100241.34;;;11.43;61.85
48848;BME280;36611;51.638;5.784;2022-11-24T01:10:40;100240.50;;;11.42;61.73
48848;BME280;36611;51.638;5.784;2022-11-24T01:13:06;100247.97;;;11.39;62.14
48848;BME280;36611;51.638;5.784;2022-11-24T01:15:36;100245.16;;;11.40;62.42
48848;BME280;36611;51.638;5.784;2022-11-24T01:18:03;100247.13;;;11.38;62.14
48848;BME280;36611;51.638;5.784;2022-11-24T01:20:30;100249.69;;;11.40;62.00
48848;BME280;36611;51.638;5.784;2022-11-24T01:22:57;100253.34;;;11.39;62.13
48848;BME280;36611;51.638;5.784;2022-11-24T01:25:24;100249.09;;;11.36;62.13
48848;BME280;36611;51.638;5.784;2022-11-24T01:27:50;100258.00;;;11.37;62.42
48848;BME280;36611;51.638;5.784;2022-11-24T01:30:17;100265.22;;;11.36;62.24
48848;BME280;36611;51.638;5.784;2022-11-24T01:32:44;100257.88;;;11.38;62.21
48848;BME280;36611;51.638;5.784;2022-11-24T01:35:10;100264.97;;;11.39;62.43
48848;BME280;36611;51.638;5.784;2022-11-24T01:37:37;100270.22;;;11.41;62.14
48848;BME280;36611;51.638;5.784;2022-11-24T01:40:04;100270.22;;;11.41;62.13
48848;BME280;36611;51.638;5.784;2022-11-24T01:42:51;100270.59;;;11.36;62.03
48848;BME280;36611;51.638;5.784;2022-11-24T01:45:37;100273.16;;;11.38;62.29
48848;BME280;36611;51.638;5.784;2022-11-24T01:48:22;100270.59;;;11.36;62.31
48848;BME280;36611;51.638;5.784;2022-11-24T01:51:08;100269.00;;;11.34;62.32
48848;BME280;36611;51.638;5.784;2022-11-24T01:53:41;100269.75;;;11.36;62.17
48848;BME280;36611;51.638;5.784;2022-11-24T01:56:10;100275.13;;;11.36;62.42
48848;BME280;36611;51.638;5.784;2022-11-24T01:58:39;100276.09;;;11.35;62.16
48848;BME280;36611;51.638;5.784;2022-11-24T02:01:06;100276.22;;;11.33;62.32
48848;BME280;36611;51.638;5.784;2022-11-24T02:03:36;100276.22;;;11.33;62.36
48848;BME280;36611;51.638;5.784;2022-11-24T02:06:11;100284.03;;;11.36;62.51
48848;BME280;36611;51.638;5.784;2022-11-24T02:09:05;100283.19;;;11.36;62.39
48848;BME280;36611;51.638;5.784;2022-11-24T02:11:35;100287.56;;;11.37;62.14
48848;BME280;36611;51.638;5.784;2022-11-24T02:14:04;100282.06;;;11.38;62.15
48848;BME280;36611;51.638;5.784;2022-11-24T02:16:33;100288.19;;;11.40;62.39
48848;BME280;36611;51.638;5.784;2022-11-24T02:19:12;100285.63;;;11.39;62.45
48848;BME280;36611;51.638;5.784;2022-11-24T02:21:40;100291.84;;;11.39;62.20
48848;BME280;36611;51.638;5.784;2022-11-24T02:24:20;100297.22;;;11.39;62.22
48848;BME280;36611;51.638;5.784;2022-11-24T02:26:50;100299.91;;;11.39;62.42
48848;BME280;36611;51.638;5.784;2022-11-24T02:29:18;100309.56;;;11.42;62.17
48848;BME280;36611;51.638;5.784;2022-11-24T02:31:50;100310.41;;;11.42;62.21
48848;BME280;36611;51.638;5.784;2022-11-24T02:34:18;100310.28;;;11.44;62.32
48848;BME280;36611;51.638;5.784;2022-11-24T02:36:45;100303.94;;;11.45;62.33
48848;BME280;36611;51.638;5.784;2022-11-24T02:39:15;100307.34;;;11.47;62.24
48848;BME280;36611;51.638;5.784;2022-11-24T02:41:47;100320.66;;;11.49;62.13
48848;BME280;36611;51.638;5.784;2022-11-24T02:44:16;100312.59;;;11.49;62.20
48848;BME280;36611;51.638;5.784;2022-11-24T02:46:45;100315.41;;;11.47;62.29
48848;BME280;36611;51.638;5.784;2022-11-24T02:49:11;100319.94;;;11.46;62.36
48848;BME280;36611;51.638;5.784;2022-11-24T02:51:38;100318.22;;;11.45;62.16
48848;BME280;36611;51.638;5.784;2022-11-24T02:54:05;100323.59;;;11.45;62.20
48848;BME280;36611;51.638;5.784;2022-11-24T02:56:35;100321.75;;;11.46;61.99
48848;BME280;36611;51.638;5.784;2022-11-24T02:59:02;100316.25;;;11.48;62.20
48848;BME280;36611;51.638;5.784;2022-11-24T03:01:28;100315.66;;;11.44;62.03
48848;BME280;36611;51.638;5.784;2022-11-24T03:03:55;100320.06;;;11.45;62.10
48848;BME280;36611;51.638;5.784;2022-11-24T03:06:22;100322.03;;;11.43;61.97
48848;BME280;36611;51.638;5.784;2022-11-24T03:08:48;100326.78;;;11.39;61.67
48848;BME280;36611;51.638;5.784;2022-11-24T03:11:15;100321.06;;;11.33;61.72
48848;BME280;36611;51.638;5.784;2022-11-24T03:13:42;100320.34;;;11.31;61.79
48848;BME280;36611;51.638;5.784;2022-11-24T03:16:08;100320.59;;;11.28;61.89
48848;BME280;36611;51.638;5.784;2022-11-24T03:18:36;100319.75;;;11.27;62.02
48848;BME280;36611;51.638;5.784;2022-11-24T03:21:02;100325.97;;;11.28;62.04
48848;BME280;36611;51.638;5.784;2022-11-24T03:23:29;100325.84;;;11.29;62.08
48848;BME280;36611;51.638;5.784;2022-11-24T03:26:15;100330.97;;;11.32;62.36
48848;BME280;36611;51.638;5.784;2022-11-24T03:28:43;100326.31;;;11.34;62.38
48848;BME280;36611;51.638;5.784;2022-11-24T03:31:10;100331.31;;;11.39;62.46
48848;BME280;36611;51.638;5.784;2022-11-24T03:33:37;100336.69;;;11.39;62.45
48848;BME280;36611;51.638;5.784;2022-11-24T03:36:05;100341.94;;;11.40;62.27
48848;BME280;36611;51.638;5.784;2022-11-24T03:38:32;100341.81;;;11.42;62.62
48848;BME280;36611;51.638;5.784;2022-11-24T03:40:59;100341.69;;;11.43;62.34
48848;BME280;36611;51.638;5.784;2022-11-24T03:43:25;100349.88;;;11.42;62.45
48848;BME280;36611;51.638;5.784;2022-11-24T03:45:52;100344.50;;;11.42;62.23
48848;BME280;36611;51.638;5.784;2022-11-24T03:48:19;100343.41;;;11.44;62.37
48848;BME280;36611;51.638;5.784;2022-11-24T03:50:54;100351.34;;;11.46;62.46
48848;BME280;36611;51.638;5.784;2022-11-24T03:53:23;100347.53;;;11.49;62.58
48848;BME280;36611;51.638;5.784;2022-11-24T03:55:50;100345.72;;;11.49;62.58
48848;BME280;36611;51.638;5.784;2022-11-24T03:58:17;100351.09;;;11.49;62.34
48848;BME280;36611;51.638;5.784;2022-11-24T04:00:44;100355.47;;;11.50;62.37
48848;BME280;36611;51.638;5.784;2022-11-24T04:03:11;100360.88;;;11.50;62.46
48848;BME280;36611;51.638;5.784;2022-11-24T04:05:38;100353.53;;;11.52;62.75
48848;BME280;36611;51.638;5.784;2022-11-24T04:08:05;100359.63;;;11.54;62.87
48848;BME280;36611;51.638;5.784;2022-11-24T04:10:33;100357.78;;;11.55;62.82
48848;BME280;36611;51.638;5.784;2022-11-24T04:13:13;100362.91;;;11.58;62.73
48848;BME280;36611;51.638;5.784;2022-11-24T04:15:41;100362.78;;;11.59;62.63
48848;BME280;36611;51.638;5.784;2022-11-24T04:18:09;100360.81;;;11.61;62.87
48848;BME280;36611;51.638;5.784;2022-11-24T04:20:37;100358.88;;;11.63;62.94
48848;BME280;36611;51.638;5.784;2022-11-24T04:23:03;100361.56;;;11.63;62.81
48848;BME280;36611;51.638;5.784;2022-11-24T04:25:30;100364.00;;;11.66;63.10
48848;BME280;36611;51.638;5.784;2022-11-24T04:27:57;100356.50;;;11.70;62.95
48848;BME280;36611;51.638;5.784;2022-11-24T04:30:25;100357.25;;;11.72;62.68
48848;BME280;36611;51.638;5.784;2022-11-24T04:32:52;100363.34;;;11.74;62.97
48848;BME280;36611;51.638;5.784;2022-11-24T04:35:20;100373.13;;;11.75;62.75
48848;BME280;36611;51.638;5.784;2022-11-24T04:37:46;100374.09;;;11.74;62.73
48848;BME280;36611;51.638;5.784;2022-11-24T04:40:13;100384.16;;;11.72;62.89
48848;BME280;36611;51.638;5.784;2022-11-24T04:42:41;100379.63;;;11.72;62.77
48848;BME280;36611;51.638;5.784;2022-11-24T04:45:08;100382.31;;;11.72;62.74
48848;BME280;36611;51.638;5.784;2022-11-24T04:47:35;100386.84;;;11.72;63.12
48848;BME280;36611;51.638;5.784;2022-11-24T04:50:02;100392.09;;;11.73;63.00
48848;BME280;36611;51.638;5.784;2022-11-24T04:52:30;100397.22;;;11.76;62.93
48848;BME280;36611;51.638;5.784;2022-11-24T04:54:56;100403.22;;;11.80;63.06
48848;BME280;36611;51.638;5.784;2022-11-24T04:57:24;100410.31;;;11.81;63.03
48848;BME280;36611;51.638;5.784;2022-11-24T04:59:52;100420.81;;;11.84;63.17
48848;BME280;36611;51.638;5.784;2022-11-24T05:02:20;100417.03;;;11.87;63.02
48848;BME280;36611;51.638;5.784;2022-11-24T05:04:47;100415.06;;;11.89;63.29
48848;BME280;36611;51.638;5.784;2022-11-24T05:07:15;100418.63;;;11.89;62.94
48848;BME280;36611;51.638;5.784;2022-11-24T05:09:45;100417.53;;;11.92;63.18
48848;BME280;36611;51.638;5.784;2022-11-24T05:12:31;100420.94;;;11.94;63.34
48848;BME280;36611;51.638;5.784;2022-11-24T05:14:58;100426.19;;;11.95;63.31
48848;BME280;36611;51.638;5.784;2022-11-24T05:17:30;100429.75;;;11.96;63.31
48848;BME280;36611;51.638;5.784;2022-11-24T05:19:57;100441.47;;;11.95;63.34
48848;BME280;36611;51.638;5.784;2022-11-24T05:22:24;100440.50;;;11.96;63.17
48848;BME280;36611;51.638;5.784;2022-11-24T05:24:51;100445.75;;;11.97;63.24
48848;BME280;36611;51.638;5.784;2022-11-24T05:27:18;100450.16;;;11.98;63.09
48848;BME280;36611;51.638;5.784;2022-11-24T05:29:44;100442.94;;;11.99;62.98
48848;BME280;36611;51.638;5.784;2022-11-24T05:32:11;100444.53;;;12.01;63.13
48848;BME280;36611;51.638;5.784;2022-11-24T05:34:38;100458.69;;;12.03;63.08
48848;BME280;36611;51.638;5.784;2022-11-24T05:37:05;100454.19;;;12.04;63.05
48848;BME280;36611;51.638;5.784;2022-11-24T05:39:32;100456.75;;;12.05;63.16
48848;BME280;36611;51.638;5.784;2022-11-24T05:42:04;100458.44;;;12.06;63.17
48848;BME280;36611;51.638;5.784;2022-11-24T05:44:51;100453.66;;;12.10;63.08
48848;BME280;36611;51.638;5.784;2022-11-24T05:47:18;100452.81;;;12.09;62.98
48848;BME280;36611;51.638;5.784;2022-11-24T05:49:45;100467.25;;;12.08;62.95
48848;BME280;36611;51.638;5.784;2022-11-24T05:52:12;100466.41;;;12.08;62.93
48848;BME280;36611;51.638;5.784;2022-11-24T05:54:38;100469.94;;;12.08;63.26
48848;BME280;36611;51.638;5.784;2022-11-24T05:57:05;100479.59;;;12.11;63.23
48848;BME280;36611;51.638;5.784;2022-11-24T05:59:32;100484.97;;;12.11;62.83
48848;BME280;36611;51.638;5.784;2022-11-24T06:01:59;100483.00;;;12.13;62.98
48848;BME280;36611;51.638;5.784;2022-11-24T06:04:30;100488.28;;;12.15;63.04
48848;BME280;36611;51.638;5.784;2022-11-24T06:06:58;100491.81;;;12.15;62.94
48848;BME280;36611;51.638;5.784;2022-11-24T06:09:24;100501.72;;;12.15;62.91
48848;BME280;36611;51.638;5.784;2022-11-24T06:11:51;100505.16;;;12.17;63.29
48848;BME280;36611;51.638;5.784;2022-11-24T06:14:17;100501.59;;;12.16;63.17
48848;BME280;36611;51.638;5.784;2022-11-24T06:16:44;100506.00;;;12.17;63.11
48848;BME280;36611;51.638;5.784;2022-11-24T06:19:11;100509.81;;;12.15;63.22
48848;BME280;36611;51.638;5.784;2022-11-24T06:21:37;100512.63;;;12.13;63.07
48848;BME280;36611;51.638;5.784;2022-11-24T06:24:04;100523.41;;;12.13;63.53
48848;BME280;36611;51.638;5.784;2022-11-24T06:26:31;100536.00;;;12.13;63.09
48848;BME280;36611;51.638;5.784;2022-11-24T06:28:58;100528.91;;;12.12;63.50
48848;BME280;36611;51.638;5.784;2022-11-24T06:31:24;100538.81;;;12.11;63.44
48848;BME280;36611;51.638;5.784;2022-11-24T06:33:51;100537.09;;;12.10;63.53
48848;BME280;36611;51.638;5.784;2022-11-24T06:36:18;100539.81;;;12.10;63.52
48848;BME280;36611;51.638;5.784;2022-11-24T06:38:45;100545.19;;;12.10;63.74
48848;BME280;36611;51.638;5.784;2022-11-24T06:41:13;100555.94;;;12.10;63.60
48848;BME280;36611;51.638;5.784;2022-11-24T06:43:41;100559.63;;;12.09;63.55
48848;BME280;36611;51.638;5.784;2022-11-24T06:46:07;100563.03;;;12.11;63.70
48848;BME280;36611;51.638;5.784;2022-11-24T06:48:34;100571.13;;;12.11;63.71
48848;BME280;36611;51.638;5.784;2022-11-24T06:51:05;100573.56;;;12.14;63.68
48848;BME280;36611;51.638;5.784;2022-11-24T06:53:34;100577.22;;;12.13;63.96
48848;BME280;36611;51.638;5.784;2022-11-24T06:56:06;100580.53;;;12.17;64.00
48848;BME280;36611;51.638;5.784;2022-11-24T06:58:43;100590.31;;;12.18;63.69
48848;BME280;36611;51.638;5.784;2022-11-24T07:01:16;100592.03;;;12.19;63.82
48848;BME280;36611;51.638;5.784;2022-11-24T07:03:44;100591.91;;;12.20;63.95
48848;BME280;36611;51.638;5.784;2022-11-24T07:06:10;100596.31;;;12.21;63.73
48848;BME280;36611;51.638;5.784;2022-11-24T07:08:37;100606.22;;;12.21;63.95
48848;BME280;36611;51.638;5.784;2022-11-24T07:11:09;100616.13;;;12.20;63.75
48848;BME280;36611;51.638;5.784;2022-11-24T07:13:36;100628.88;;;12.18;63.77
48848;BME280;36611;51.638;5.784;2022-11-24T07:16:19;100635.97;;;12.19;63.77
48848;BME280;36611;51.638;5.784;2022-11-24T07:18:47;100635.09;;;12.19;63.64
48848;BME280;36611;51.638;5.784;2022-11-24T07:21:14;100642.44;;;12.17;63.73
48848;BME280;36611;51.638;5.784;2022-11-24T07:23:41;100629.97;;;12.16;63.49
48848;BME280;36611;51.638;5.784;2022-11-24T07:26:09;100644.41;;;12.15;63.54
48848;BME280;36611;51.638;5.784;2022-11-24T07:28:36;100647.22;;;12.13;63.57
48848;BME280;36611;51.638;5.784;2022-11-24T07:31:05;100648.31;;;12.11;63.42
48848;BME280;36611;51.638;5.784;2022-11-24T07:33:32;100662.66;;;12.11;63.44
48848;BME280;36611;51.638;5.784;2022-11-24T07:35:59;100666.31;;;12.10;63.22
48848;BME280;36611;51.638;5.784;2022-11-24T07:38:27;100673.53;;;12.09;63.05
48848;BME280;36611;51.638;5.784;2022-11-24T07:41:01;100680.88;;;12.07;63.22
48848;BME280;36611;51.638;5.784;2022-11-24T07:43:30;100681.59;;;12.09;63.05
48848;BME280;36611;51.638;5.784;2022-11-24T07:45:57;100691.66;;;12.07;63.26
48848;BME280;36611;51.638;5.784;2022-11-24T07:48:24;100689.81;;;12.08;63.14
48848;BME280;36611;51.638;5.784;2022-11-24T07:50:51;100691.53;;;12.09;63.19
48848;BME280;36611;51.638;5.784;2022-11-24T07:53:21;100701.31;;;12.10;62.92
48848;BME280;36611;51.638;5.784;2022-11-24T07:55:56;100703.16;;;12.09;63.13
48848;BME280;36611;51.638;5.784;2022-11-24T07:58:23;100714.66;;;12.12;63.03
48848;BME280;36611;51.638;5.784;2022-11-24T08:00:57;100710.97;;;12.13;62.94
48848;BME280;36611;51.638;5.784;2022-11-24T08:03:24;100717.22;;;12.13;63.06
48848;BME280;36611;51.638;5.784;2022-11-24T08:05:58;100720.03;;;12.12;62.79
48848;BME280;36611;51.638;5.784;2022-11-24T08:08:45;100713.53;;;12.14;62.95
48848;BME280;36611;51.638;5.784;2022-11-24T08:11:14;100722.47;;;12.15;62.82
48848;BME280;36611;51.638;5.784;2022-11-24T08:13:42;100723.47;;;12.14;62.96
48848;BME280;36611;51.638;5.784;2022-11-24T08:16:13;100732.16;;;12.17;62.78
48848;BME280;36611;51.638;5.784;2022-11-24T08:18:41;100734.72;;;12.19;62.74
48848;BME280;36611;51.638;5.784;2022-11-24T08:21:12;100743.53;;;12.21;62.94
48848;BME280;36611;51.638;5.784;2022-11-24T08:23:40;100745.38;;;12.20;62.95
48848;BME280;36611;51.638;5.784;2022-11-24T08:26:10;100755.03;;;12.23;62.63
48848;BME280;36611;51.638;5.784;2022-11-24T08:28:39;100755.88;;;12.23;63.04
48848;BME280;36611;51.638;5.784;2022-11-24T08:31:11;100765.69;;;12.24;62.82
48848;BME280;36611;51.638;5.784;2022-11-24T08:33:39;100768.38;;;12.24;62.78
48848;BME280;36611;51.638;5.784;2022-11-24T08:36:12;100775.47;;;12.25;62.87
48848;BME280;36611;51.638;5.784;2022-11-24T08:38:39;100782.09;;;12.32;62.90
48848;BME280;36611;51.638;5.784;2022-11-24T08:41:08;100783.19;;;12.41;62.89
48848;BME280;36611;51.638;5.784;2022-11-24T08:43:36;100784.28;;;12.50;63.35
48848;BME280;36611;51.638;5.784;2022-11-24T08:46:05;100788.09;;;12.58;63.35
48848;BME280;36611;51.638;5.784;2022-11-24T08:48:33;100789.22;;;12.67;63.13
48848;BME280;36611;51.638;5.784;2022-11-24T08:51:08;100806.47;;;12.76;63.19
48848;BME280;36611;51.638;5.784;2022-11-24T08:53:35;100812.09;;;12.84;63.18
48848;BME280;36611;51.638;5.784;2022-11-24T08:56:03;100805.97;;;12.93;62.86
48848;BME280;36611;51.638;5.784;2022-11-24T08:58:30;100810.47;;;13.03;62.76
48848;BME280;36611;51.638;5.784;2022-11-24T09:01:26;100817.69;;;13.14;62.69
48848;BME280;36611;51.638;5.784;2022-11-24T09:03:53;100812.16;;;13.27;62.64
48848;BME280;36611;51.638;5.784;2022-11-24T09:06:23;100814.94;;;13.36;62.24
48848;BME280;36611;51.638;5.784;2022-11-24T09:08:52;100814.47;;;13.43;61.84
48848;BME280;36611;51.638;5.784;2022-11-24T09:11:19;100820.47;;;13.46;61.98
48848;BME280;36611;51.638;5.784;2022-11-24T09:13:46;100818.63;;;13.47;61.40
48848;BME280;36611;51.638;5.784;2022-11-24T09:16:20;100825.72;;;13.48;61.36
48848;BME280;36611;51.638;5.784;2022-11-24T09:18:47;100834.56;;;13.50;61.43
48848;BME280;36611;51.638;5.784;2022-11-24T09:21:20;100843.38;;;13.52;61.04
48848;BME280;36611;51.638;5.784;2022-11-24T09:23:49;100839.81;;;13.51;61.13
48848;BME280;36611;51.638;5.784;2022-11-24T09:28:44;100845.34;;;13.50;61.19
48848;BME280;36611;51.638;5.784;2022-11-24T09:31:14;100850.63;;;13.51;60.83
48848;BME280;36611;51.638;5.784;2022-11-24T09:33:41;100857.72;;;13.52;60.70
48848;BME280;36611;51.638;5.784;2022-11-24T09:36:08;100858.72;;;13.51;60.57
48848;BME280;36611;51.638;5.784;2022-11-24T09:38:34;100861.41;;;13.51;60.94
48848;BME280;36611;51.638;5.784;2022-11-24T09:46:22;100869.00;;;13.57;60.45
48848;BME280;36611;51.638;5.784;2022-11-24T09:48:55;100876.69;;;13.62;60.67
48848;BME280;36611;51.638;5.784;2022-11-24T09:51:26;100868.22;;;13.66;60.60
48848;BME280;36611;51.638;5.784;2022-11-24T09:54:04;100874.81;;;13.74;60.79
48848;BME280;36611;51.638;5.784;2022-11-24T09:56:37;100879.44;;;13.83;60.64
48848;BME280;36611;51.638;5.784;2022-11-24T09:59:15;100879.53;;;13.92;60.54
48848;BME280;36611;51.638;5.784;2022-11-24T10:01:44;100893.09;;;14.02;60.70
48848;BME280;36611;51.638;5.784;2022-11-24T10:04:17;100887.78;;;14.12;60.29
48848;BME280;36611;51.638;5.784;2022-11-24T10:10:02;100890.66;;;14.31;60.43
48848;BME280;36611;51.638;5.784;2022-11-24T10:18:05;100906.03;;;14.51;59.86
48848;BME280;36611;51.638;5.784;2022-11-24T10:28:25;100921.53;;;14.80;59.42
48848;BME280;36611;51.638;5.784;2022-11-24T10:31:07;100924.72;;;14.85;59.15
48848;BME280;36611;51.638;5.784;2022-11-24T10:33:39;100913.38;;;14.91;58.63
48848;BME280;36611;51.638;5.784;2022-11-24T10:36:13;100918.84;;;15.01;58.98
48848;BME280;36611;51.638;5.784;2022-11-24T10:38:52;100928.84;;;15.10;58.39
48848;BME280;36611;51.638;5.784;2022-11-24T10:44:26;100928.06;;;15.29;58.57
48848;BME280;36611;51.638;5.784;2022-11-24T10:46:52;100938.47;;;15.33;58.56
48848;BME280;36611;51.638;5.784;2022-11-24T10:49:24;100942.47;;;15.39;58.11
48848;BME280;36611;51.638;5.784;2022-11-24T10:52:08;100943.34;;;15.49;57.84
48848;BME280;36611;51.638;5.784;2022-11-24T10:54:53;100939.09;;;15.56;58.13
48848;BME280;36611;51.638;5.784;2022-11-24T10:57:36;100952.84;;;15.64;57.89
48848;BME280;36611;51.638;5.784;2022-11-24T11:03:10;100947.03;;;15.78;57.25
48848;BME280;36611;51.638;5.784;2022-11-24T11:05:39;100943.06;;;15.82;57.43
48848;BME280;36611;51.638;5.784;2022-11-24T11:10:41;100937.78;;;15.91;57.07
48848;BME280;36611;51.638;5.784;2022-11-24T11:13:27;100941.50;;;15.99;57.04
48848;BME280;36611;51.638;5.784;2022-11-24T11:15:56;100938.22;;;16.05;56.65
48848;BME280;36611;51.638;5.784;2022-11-24T11:18:31;100950.34;;;16.11;56.82
48848;BME280;36611;51.638;5.784;2022-11-24T11:21:01;100951.91;;;16.13;56.62
48848;BME280;36611;51.638;5.784;2022-11-24T11:23:35;100943.50;;;16.16;56.51
48848;BME280;36611;51.638;5.784;2022-11-24T11:32:21;100940.66;;;16.28;56.22
48848;BME280;36611;51.638;5.784;2022-11-24T11:35:10;100939.81;;;16.37;55.92
48848;BME280;36611;51.638;5.784;2022-11-24T11:37:38;100938.69;;;16.39;55.82
48848;BME280;36611;51.638;5.784;2022-11-24T11:40:13;100943.09;;;16.40;55.46
48848;BME280;36611;51.638;5.784;2022-11-24T11:42:47;100942.94;;;16.42;55.86
48848;BME280;36611;51.638;5.784;2022-11-24T11:45:34;100937.81;;;16.48;55.59
48848;BME280;36611;51.638;5.784;2022-11-24T11:50:44;100933.38;;;16.57;55.32
48848;BME280;36611;51.638;5.784;2022-11-24T11:53:48;100937.22;;;16.64;55.33
48848;BME280;36611;51.638;5.784;2022-11-24T11:56:31;100936.81;;;16.69;55.24
48848;BME280;36611;51.638;5.784;2022-11-24T12:15:41;100940.59;;;16.86;55.17
48848;BME280;36611;51.638;5.784;2022-11-24T12:30:19;100938.97;;;17.12;54.23
48848;BME280;36611;51.638;5.784;2022-11-24T12:35:31;100932.41;;;17.14;54.07
48848;BME280;36611;51.638;5.784;2022-11-24T12:38:08;100938.38;;;17.18;53.93
48848;BME280;36611;51.638;5.784;2022-11-24T12:43:49;100943.75;;;17.28;54.24
48848;BME280;36611;51.638;5.784;2022-11-24T12:46:43;100940.34;;;17.26;53.71
48848;BME280;36611;51.638;5.784;2022-11-24T12:49:21;100947.47;;;17.27;53.43
48848;BME280;36611;51.638;5.784;2022-11-24T12:51:58;100950.94;;;17.19;53.75
48848;BME280;36611;51.638;5.784;2022-11-24T12:54:28;100957.69;;;17.15;53.37
48848;BME280;36611;51.638;5.784;2022-11-24T12:57:06;100967.53;;;17.16;53.44
48848;BME280;36611;51.638;5.784;2022-11-24T13:05:21;100962.09;;;17.16;53.40
48848;BME280;36611;51.638;5.784;2022-11-24T13:07:58;100963.09;;;17.15;53.11
48848;BME280;36611;51.638;5.784;2022-11-24T13:10:30;100966.66;;;17.15;53.41
48848;BME280;36611;51.638;5.784;2022-11-24T13:13:17;100957.97;;;17.12;52.90
48848;BME280;36611;51.638;5.784;2022-11-24T13:24:22;100964.69;;;16.98;53.17
48848;BME280;36611;51.638;5.784;2022-11-24T13:27:25;100961.56;;;16.93;53.19
48848;BME280;36611;51.638;5.784;2022-11-24T13:29:38;100963.47;;;16.83;52.97
48848;BME280;36611;51.638;5.784;2022-11-24T13:53:35;100957.47;;;16.31;53.32
48848;BME280;36611;51.638;5.784;2022-11-24T13:58:40;100963.19;;;16.28;53.13
48848;BME280;36611;51.638;5.784;2022-11-24T14:01:27;100952.63;;;16.25;53.42
48848;BME280;36611;51.638;5.784;2022-11-24T14:04:13;100956.34;;;16.14;53.50
48848;BME280;36611;51.638;5.784;2022-11-24T14:07:06;100945.94;;;16.10;53.41
48848;BME280;36611;51.638;5.784;2022-11-24T14:09:50;100943.78;;;16.04;53.55
48848;BME280;36611;51.638;5.784;2022-11-24T14:12:23;100948.91;;;15.97;53.18
48848;BME280;36611;51.638;5.784;2022-11-24T14:14:52;100944.06;;;15.91;53.19
48848;BME280;36611;51.638;5.784;2022-11-24T14:17:22;100942.06;;;15.83;53.75
48848;BME280;36611;51.638;5.784;2022-11-24T14:19:54;100940.91;;;15.76;53.54
48848;BME280;36611;51.638;5.784;2022-11-24T14:22:23;100940.47;;;15.71;53.77
48848;BME280;36611;51.638;5.784;2022-11-24T14:24:58;100941.03;;;15.65;53.48
48848;BME280;36611;51.638;5.784;2022-11-24T14:27:31;100939.72;;;15.60;53.80
48848;BME280;36611;51.638;5.784;2022-11-24T14:30:19;100932.09;;;15.53;53.93
48848;BME280;36611;51.638;5.784;2022-11-24T14:33:00;100927.25;;;15.47;53.78
48848;BME280;36611;51.638;5.784;2022-11-24T14:35:34;100935.19;;;15.39;53.63
48848;BME280;36611;51.638;5.784;2022-11-24T14:38:03;100932.78;;;15.36;53.91
48848;BME280;36611;51.638;5.784;2022-11-24T14:43:16;100941.13;;;15.23;53.91
48848;BME280;36611;51.638;5.784;2022-11-24T14:46:06;100940.97;;;15.15;53.81
48848;BME280;36611;51.638;5.784;2022-11-24T14:48:44;100942.50;;;15.08;54.00
48848;BME280;36611;51.638;5.784;2022-11-24T14:51:17;100935.78;;;15.03;54.09
48848;BME280;36611;51.638;5.784;2022-11-24T14:53:49;100936.47;;;14.95;54.07
48848;BME280;36611;51.638;5.784;2022-11-24T14:56:31;100942.63;;;14.86;54.19
48848;BME280;36611;51.638;5.784;2022-11-24T14:58:59;100947.72;;;14.79;54.24
48848;BME280;36611;51.638;5.784;2022-11-24T15:04:19;100947.09;;;14.66;54.36
48848;BME280;36611;51.638;5.784;2022-11-24T15:07:23;100950.44;;;14.58;54.39
48848;BME280;36611;51.638;5.784;2022-11-24T15:09:56;100955.66;;;14.50;54.69
48848;BME280;36611;51.638;5.784;2022-11-24T15:12:27;100961.81;;;14.41;54.24